Time;durP1;ratioP1;P1;durP2;ratioP2;P2;SDS_P1;SDS_P2;PMS_P1;PMS_P2;Temp;Humidity;BMP_temperature;BMP_pressure;BME280_temperature;BME280_humidity;BME280_pressure;Samples;Min_cycle;Max_cycle;Signal;HPM_P1;HPM_P2
2022/02/26 00:57:01;;;;;;;4.88;1.55;;;;;;;4.46;58.18;98586.41;12677566;23;20096;-76
2022/02/26 01:36:18;;;;;;;4.43;1.08;;;;;;;4.56;59.04;98659.38;12681054;23;20029;-76
2022/02/26 01:42:14;;;;;;;4.50;1.40;;;;;;;4.53;59.85;98652.13;12667081;23;20022;-76
2022/02/26 01:48:04;;;;;;;3.92;1.35;;;;;;;4.49;59.48;98659.25;12652845;23;20045;-76
2022/02/26 02:11:12;;;;;;;;;;;;;;;4.62;60.19;98652.97;12680576;23;20345;-76
2022/02/26 02:25:08;;;;;;;2.92;0.88;;;;;;;4.64;59.50;98659.47;12682168;23;20022;-76
2022/02/26 02:49:19;;;;;;;5.05;1.00;;;;;;;4.69;59.47;98664.13;12679725;23;20441;-76
2022/02/26 03:10:50;;;;;;;6.03;1.20;;;;;;;4.59;59.47;98696.25;12700245;23;20014;-76
2022/02/26 03:25:23;;;;;;;4.97;1.10;;;;;;;4.64;58.64;98717.56;12678614;23;20017;-76
2022/02/26 03:31:14;;;;;;;5.00;0.95;;;;;;;4.67;59.16;98724.78;12650044;23;20026;-76
2022/02/26 03:38:08;;;;;;;5.85;1.10;;;;;;;4.65;58.70;98746.69;12649062;23;20026;-76
2022/02/26 03:51:54;;;;;;;5.03;1.10;;;;;;;4.59;59.67;98770.94;12699015;23;20312;-76
2022/02/26 03:57:43;;;;;;;8.02;1.13;;;;;;;4.60;59.73;98778.69;12649524;23;20081;-74
2022/02/26 04:03:05;;;;;;;4.10;1.10;;;;;;;4.62;59.32;98791.97;12616411;23;20145;-74
2022/02/26 04:08:34;;;;;;;4.90;0.80;;;;;;;4.65;59.17;98787.44;12619966;23;20045;-73
2022/02/26 04:23:06;;;;;;;4.95;0.70;;;;;;;4.66;58.69;98803.50;12677975;23;20461;-76
2022/02/26 04:38:08;;;;;;;3.75;0.50;;;;;;;4.70;58.51;98814.97;12697395;23;20096;-76
2022/02/26 04:44:47;;;;;;;5.72;1.23;;;;;;;4.70;58.73;98828.81;12657360;23;20315;-76
2022/02/26 04:51:13;;;;;;;9.38;1.38;;;;;;;4.72;58.38;98833.81;12677481;23;20029;-76
2022/02/26 04:56:37;;;;;;;7.22;0.90;;;;;;;4.73;58.74;98836.06;12656112;23;20014;-76
2022/02/26 05:02:31;;;;;;;5.30;1.15;;;;;;;4.70;59.33;98853.69;12678043;23;20097;-76
2022/02/26 05:08:28;;;;;;;5.75;1.00;;;;;;;4.69;58.56;98857.75;12665727;23;20513;-76
2022/02/26 05:20:47;;;;;;;6.60;1.60;;;;;;;4.72;58.34;98862.22;12701022;23;20020;-76
2022/02/26 05:26:13;;;;;;;6.53;1.90;;;;;;;4.68;58.33;98875.63;12660095;23;20038;-76
2022/02/26 05:31:34;;;;;;;9.93;1.83;;;;;;;4.65;57.97;98879.44;12640198;23;20430;-76
2022/02/26 05:44:31;;;;;;;6.82;1.83;;;;;;;4.59;58.00;98898.13;12660108;23;20025;-76
2022/02/26 05:59:01;;;;;;;6.72;1.38;;;;;;;4.59;57.81;98926.53;12680568;23;20022;-76
2022/02/26 06:04:22;;;;;;;5.82;0.98;;;;;;;4.66;57.33;98941.03;12648493;23;20135;-76
2022/02/26 06:44:09;;;;;;;8.05;1.50;;;;;;;4.94;56.11;98971.78;12680164;23;20030;-76
2022/02/26 07:06:20;;;;;;;9.93;1.83;;;;;;;5.43;55.26;98999.91;12675302;23;20018;-73
2022/02/26 07:12:13;;;;;;;8.40;1.17;;;;;;;5.45;54.22;99013.97;12659734;23;20409;-76
2022/02/26 07:18:42;;;;;;;6.93;1.30;;;;;;;5.46;54.90;99021.00;12634529;23;20026;-76
2022/02/26 07:24:32;;;;;;;10.13;1.90;;;;;;;5.63;53.98;99019.97;12648089;23;20346;-73
2022/02/26 07:39:00;;;;;;;9.48;1.42;;;;;;;5.90;53.16;99020.75;12678748;23;20362;-74
2022/02/26 07:44:21;;;;;;;8.50;1.77;;;;;;;5.97;52.65;99022.91;12638300;23;20072;-73
2022/02/26 07:58:00;;;;;;;8.70;1.63;;;;;;;6.06;51.80;99052.97;12660450;23;20092;-76
2022/02/26 08:03:51;;;;;;;9.02;2.17;;;;;;;6.15;52.38;99055.31;12663886;23;20053;-74
2022/02/26 08:09:11;;;;;;;10.10;1.98;;;;;;;6.30;52.27;99065.88;12642117;23;20017;-74
2022/02/26 08:14:37;;;;;;;10.77;2.10;;;;;;;6.50;51.86;99079.09;12679309;23;20487;-74
2022/02/26 08:19:57;;;;;;;6.43;1.60;;;;;;;6.89;51.22;99088.63;12616726;23;20088;-74
2022/02/26 08:25:18;;;;;;;6.63;1.50;;;;;;;7.02;51.22;99091.34;12637213;23;20089;-74
2022/02/26 08:30:43;;;;;;;8.55;1.60;;;;;;;7.29;50.32;99082.94;12677414;23;20093;-73
2022/02/26 08:36:33;;;;;;;12.80;1.85;;;;;;;7.62;49.66;99093.22;12666653;23;20026;-74
2022/02/26 08:42:22;;;;;;;7.82;1.58;;;;;;;7.97;49.76;99100.19;12640183;23;20030;-74
2022/02/26 08:47:43;;;;;;;7.25;1.55;;;;;;;7.77;49.00;99108.56;12664075;23;20017;-74
2022/02/26 08:53:07;;;;;;;8.40;1.40;;;;;;;7.49;49.30;99112.75;12665410;23;20418;-74
2022/02/26 08:58:59;;;;;;;8.98;1.10;;;;;;;7.21;50.41;99134.88;12640464;23;20022;-74
2022/02/26 09:04:20;;;;;;;7.10;1.43;;;;;;;6.80;51.58;99141.81;12623725;23;20014;-74
2022/02/26 09:09:42;;;;;;;10.88;1.40;;;;;;;6.43;52.14;99151.09;12643117;23;20029;-73
2022/02/26 09:15:06;;;;;;;10.07;1.52;;;;;;;5.98;53.44;99151.88;12663137;23;20334;-73
2022/02/26 09:20:27;;;;;;;6.75;1.63;;;;;;;5.84;53.71;99147.56;12643714;23;20315;-73
2022/02/26 09:25:49;;;;;;;10.85;1.42;;;;;;;5.97;53.86;99156.69;12663094;23;20441;-73
2022/02/26 09:31:11;;;;;;;7.55;2.00;;;;;;;6.22;54.22;99151.72;12643246;23;20017;-73
2022/02/26 09:36:33;;;;;;;8.02;2.30;;;;;;;6.39;54.02;99156.97;12622803;23;20473;-73
2022/02/26 09:41:55;;;;;;;12.85;2.30;;;;;;;6.48;54.26;99164.13;12662844;23;20025;-74
2022/02/26 09:47:18;;;;;;;8.38;2.20;;;;;;;6.70;54.31;99157.41;12680479;23;20014;-73
2022/02/26 09:52:44;;;;;;;11.85;2.28;;;;;;;7.05;53.97;99176.38;12679446;23;20018;-73
2022/02/26 09:58:06;;;;;;;11.05;2.30;;;;;;;7.06;54.15;99186.19;12639974;23;20044;-73
2022/02/26 10:03:37;;;;;;;9.13;2.25;;;;;;;6.73;54.72;99201.47;12659339;23;20444;-73
2022/02/26 10:09:00;;;;;;;7.80;1.73;;;;;;;6.42;54.78;99199.53;12574089;23;20019;-75
2022/02/26 10:14:51;;;;;;;10.52;2.15;;;;;;;6.68;55.33;99196.03;12604868;23;20026;-73
2022/02/26 10:20:55;;;;;;;10.88;2.60;;;;;;;8.07;54.95;99200.56;12575859;23;20386;-76
2022/02/26 10:26:23;;;;;;;6.00;1.95;;;;;;;8.15;53.94;99197.84;12600511;23;20045;-78
2022/02/26 10:31:45;;;;;;;5.57;1.67;;;;;;;11.81;54.28;99203.16;12580177;23;20053;-78
2022/02/26 10:37:07;;;;;;;3.92;1.55;;;;;;;20.88;48.66;99204.25;12620115;23;20450;-76
2022/02/26 10:42:31;;;;;;;4.97;1.40;;;;;;;23.03;37.39;99207.72;12600433;23;20022;-75
2022/02/26 10:47:57;;;;;;;3.00;1.45;;;;;;;19.46;40.88;99206.66;12620373;23;20432;-77
2022/02/26 10:53:18;;;;;;;4.15;1.48;;;;;;;21.26;36.16;99214.69;12618678;23;20018;-79
2022/02/26 10:58:39;;;;;;;3.15;1.52;;;;;;;16.76;37.93;99208.53;12639380;23;20319;-77
2022/02/26 11:04:03;;;;;;;4.82;1.83;;;;;;;13.49;40.97;99210.72;12600663;23;20442;-78
2022/02/26 11:09:52;;;;;;;5.28;1.80;;;;;;;11.70;43.39;99202.28;12662810;23;20434;-79
2022/02/26 11:15:14;;;;;;;4.38;1.38;;;;;;;10.88;44.61;99200.00;12652932;23;20370;-77
2022/02/26 11:20:38;;;;;;;4.43;1.27;;;;;;;11.70;45.85;99205.06;12661398;23;20025;-77
2022/02/26 11:25:59;;;;;;;3.70;1.57;;;;;;;13.11;41.94;99199.94;12639168;23;20433;-76
2022/02/26 11:47:43;;;;;;;4.95;1.90;;;;;;;9.90;44.67;99201.50;12679032;23;20017;-75
2022/02/26 11:53:43;;;;;;;3.67;1.63;;;;;;;9.50;45.95;99200.50;12678007;23;20014;-76
2022/02/26 12:01:04;;;;;;;2.70;1.40;;;;;;;9.24;46.51;99188.34;12435204;23;20028;-75
2022/02/26 12:07:59;;;;;;;4.05;1.63;;;;;;;9.56;46.43;99193.47;12439286;23;20143;-75
2022/02/26 12:14:30;;;;;;;2.97;1.60;;;;;;;9.17;46.67;99189.06;12360768;24;20495;-76
2022/02/26 12:20:59;;;;;;;5.07;1.88;;;;;;;8.79;47.68;99188.88;12414712;23;20026;-76
2022/02/26 12:26:20;;;;;;;3.88;1.48;;;;;;;8.93;48.38;99183.94;12618863;23;20038;-76
2022/02/26 12:32:19;;;;;;;2.80;1.90;;;;;;;9.16;47.67;99185.50;12588379;23;20022;-76
2022/02/26 12:46:32;;;;;;;5.82;3.13;;;;;;;8.72;48.09;99193.09;12619610;23;20093;-76
2022/02/26 12:52:21;;;;;;;6.28;3.95;;;;;;;8.29;48.07;99196.47;12588414;23;20442;-78
2022/02/26 12:57:46;;;;;;;5.45;4.30;;;;;;;8.05;49.14;99183.69;12576771;23;20020;-78
2022/02/26 13:03:09;;;;;;;6.43;4.35;;;;;;;8.01;49.64;99178.47;12576331;23;20074;-78
2022/02/26 13:08:32;;;;;;;7.47;4.30;;;;;;;7.92;49.31;99178.94;12616730;23;20018;-77
2022/02/26 13:14:27;;;;;;;5.70;3.78;;;;;;;8.07;49.79;99185.91;12642563;23;20022;-77
2022/02/26 13:20:24;;;;;;;5.45;3.05;;;;;;;8.20;49.23;99183.81;12633562;23;20029;-77
2022/02/26 13:25:46;;;;;;;9.95;3.17;;;;;;;8.49;49.58;99186.63;12623686;23;20022;-78
2022/02/26 13:31:09;;;;;;;6.88;2.97;;;;;;;8.77;49.18;99191.44;12642266;23;20042;-78
2022/02/26 13:36:31;;;;;;;5.90;2.90;;;;;;;9.02;48.71;99184.16;12640927;23;20018;-77
2022/02/26 13:42:01;;;;;;;5.72;2.38;;;;;;;9.23;48.54;99181.28;12622384;23;20014;-77
2022/02/26 13:47:24;;;;;;;7.85;2.80;;;;;;;9.21;48.40;99169.94;12643523;23;20089;-77
2022/02/26 13:52:48;;;;;;;7.63;2.50;;;;;;;9.38;48.26;99161.81;12663421;23;20414;-77
2022/02/26 13:58:37;;;;;;;6.03;2.42;;;;;;;9.48;48.23;99166.88;12653561;23;20101;-77
2022/02/26 14:03:59;;;;;;;7.43;3.58;;;;;;;9.56;47.67;99170.44;12642215;23;20025;-79
2022/02/26 14:09:48;;;;;;;5.97;3.25;;;;;;;9.65;46.80;99179.00;12636985;23;20382;-78
2022/02/26 14:15:10;;;;;;;7.82;3.20;;;;;;;9.71;47.05;99181.59;12653525;23;20378;-77
2022/02/26 14:20:32;;;;;;;8.77;3.25;;;;;;;9.88;47.01;99173.44;12641521;23;20429;-77
2022/02/26 14:25:57;;;;;;;7.18;3.15;;;;;;;9.86;46.63;99184.41;12642250;23;20018;-77
2022/02/26 14:31:18;;;;;;;8.15;2.83;;;;;;;9.63;46.73;99180.81;12658990;23;20025;-77
2022/02/26 14:36:40;;;;;;;6.65;3.10;;;;;;;9.50;47.17;99184.53;12661677;23;20025;-77
2022/02/26 14:42:02;;;;;;;5.65;3.08;;;;;;;9.48;46.80;99175.97;12659432;23;20013;-78
2022/02/26 14:47:23;;;;;;;6.10;3.05;;;;;;;9.33;47.12;99178.69;12620085;23;20014;-77
2022/02/26 14:52:45;;;;;;;5.97;2.78;;;;;;;9.35;47.04;99185.22;12661802;23;20398;-77
2022/02/26 14:58:07;;;;;;;7.60;2.63;;;;;;;9.31;47.31;99190.41;12639152;23;20101;-77
2022/02/26 15:03:30;;;;;;;6.72;2.72;;;;;;;9.12;46.96;99195.53;12658541;23;20041;-75
2022/02/26 15:09:23;;;;;;;5.75;2.05;;;;;;;8.81;46.66;99206.53;12651439;23;20053;-75
2022/02/26 15:14:43;;;;;;;7.30;2.00;;;;;;;8.59;47.02;99204.34;12659790;23;20018;-79
2022/02/26 15:20:07;;;;;;;8.77;3.90;;;;;;;8.47;47.31;99200.34;12627387;23;20022;-79
2022/02/26 15:26:01;;;;;;;7.27;2.57;;;;;;;8.36;47.64;99195.81;12648777;23;20056;-77
2022/02/26 15:31:51;;;;;;;7.00;2.03;;;;;;;8.18;47.37;99193.97;12650550;23;20022;-77
2022/02/26 15:37:13;;;;;;;6.50;2.45;;;;;;;8.00;47.50;99209.59;12639730;23;20418;-77
2022/02/26 15:42:35;;;;;;;8.38;2.45;;;;;;;7.87;48.37;99213.19;12659070;23;20021;-77
2022/02/26 15:47:55;;;;;;;10.32;2.30;;;;;;;7.68;48.52;99212.63;12639358;23;20290;-77
2022/02/26 15:53:23;;;;;;;8.13;2.50;;;;;;;7.61;48.61;99214.03;12639054;23;20085;-77
2022/02/26 15:59:15;;;;;;;9.13;2.15;;;;;;;7.37;48.87;99228.97;12637184;23;20030;-77
2022/02/26 16:04:36;;;;;;;7.25;2.40;;;;;;;7.28;49.02;99237.00;12677256;23;20457;-79
2022/02/26 16:09:57;;;;;;;8.63;2.40;;;;;;;7.11;49.93;99238.06;12637137;23;20020;-79
2022/02/26 16:15:19;;;;;;;14.48;3.58;;;;;;;7.05;50.24;99243.00;12627174;23;20437;-78
2022/02/26 16:20:39;;;;;;;10.88;2.70;;;;;;;6.96;50.17;99253.78;12616273;23;20028;-79
2022/02/26 16:26:01;;;;;;;7.70;2.13;;;;;;;6.88;50.52;99248.13;12676582;23;20065;-79
2022/02/26 16:31:24;;;;;;;9.02;2.35;;;;;;;6.78;50.58;99255.38;12616691;23;20014;-77
2022/02/26 16:36:45;;;;;;;9.35;2.90;;;;;;;6.67;50.74;99263.91;12640371;23;20349;-77
2022/02/26 16:42:07;;;;;;;9.45;2.63;;;;;;;6.67;50.94;99259.13;12635642;23;20049;-76
2022/02/26 16:47:29;;;;;;;8.48;2.53;;;;;;;6.65;51.30;99272.75;12676286;23;20018;-77
2022/02/26 16:52:52;;;;;;;9.57;2.80;;;;;;;6.53;52.25;99274.97;12656525;23;20017;-77
2022/02/26 16:58:13;;;;;;;6.18;2.35;;;;;;;6.40;52.15;99294.38;12682430;23;20022;-77
2022/02/26 17:03:41;;;;;;;9.38;2.40;;;;;;;6.31;51.99;99289.22;12641976;23;20018;-77
2022/02/26 17:09:06;;;;;;;9.15;2.30;;;;;;;6.28;52.20;99290.28;12623292;23;20439;-77
2022/02/26 17:14:56;;;;;;;10.15;2.30;;;;;;;6.25;52.94;99299.66;12666505;23;20433;-77
2022/02/26 17:20:21;;;;;;;9.70;2.38;;;;;;;6.16;53.75;99311.13;12623092;23;20013;-78
2022/02/26 17:25:44;;;;;;;7.45;2.67;;;;;;;6.03;53.37;99320.16;12660244;23;20081;-78
2022/02/26 17:31:14;;;;;;;6.80;1.70;;;;;;;5.86;53.52;99325.91;12659642;23;20089;-77
2022/02/26 17:37:05;;;;;;;6.32;2.40;;;;;;;5.82;53.91;99331.00;12637782;23;20434;-79
2022/02/26 17:42:26;;;;;;;4.93;1.73;;;;;;;5.85;54.35;99337.50;12640179;23;20453;-77
2022/02/26 17:48:01;;;;;;;5.30;1.83;;;;;;;5.83;54.10;99343.59;12600428;23;20018;-77
2022/02/26 17:53:22;;;;;;;8.25;1.98;;;;;;;5.81;54.38;99351.69;12680828;23;20013;-77
2022/02/26 17:58:44;;;;;;;7.47;2.35;;;;;;;5.72;54.17;99346.50;12644621;23;20034;-78
2022/02/26 18:04:05;;;;;;;8.85;2.28;;;;;;;5.65;54.79;99347.84;12619936;23;20018;-75
2022/02/26 18:09:27;;;;;;;8.63;2.50;;;;;;;5.67;54.52;99356.38;12638356;23;20034;-75
2022/02/26 18:15:16;;;;;;;7.68;2.53;;;;;;;5.59;54.82;99354.72;12623133;23;20029;-76
2022/02/26 18:21:05;;;;;;;10.38;2.70;;;;;;;5.55;55.16;99357.03;12651405;23;20433;-76
2022/02/26 18:26:26;;;;;;;9.82;2.63;;;;;;;5.49;55.29;99345.25;12659209;23;20362;-76
2022/02/26 18:31:47;;;;;;;8.77;3.03;;;;;;;5.46;56.06;99353.34;12620220;23;20330;-77
2022/02/26 18:37:11;;;;;;;9.05;2.67;;;;;;;5.43;55.78;99351.63;12621064;23;20022;-77
2022/02/26 18:42:33;;;;;;;10.48;3.00;;;;;;;5.40;56.07;99361.00;12619805;23;20069;-77
2022/02/26 18:47:55;;;;;;;12.18;2.50;;;;;;;5.46;55.98;99352.59;12638747;23;20077;-75
2022/02/26 18:53:16;;;;;;;13.13;2.88;;;;;;;5.50;56.05;99347.53;12658686;23;20041;-75
2022/02/26 18:58:37;;;;;;;7.93;2.95;;;;;;;5.52;55.77;99349.78;12640298;23;20093;-76
2022/02/26 19:04:01;;;;;;;7.35;2.67;;;;;;;5.52;56.25;99355.31;12639203;23;20014;-77
2022/02/26 19:09:22;;;;;;;12.47;3.50;;;;;;;5.51;56.36;99360.09;12597837;23;20456;-77
2022/02/26 19:14:43;;;;;;;9.05;3.17;;;;;;;5.53;55.95;99365.88;12634196;23;20042;-77
2022/02/26 19:20:06;;;;;;;12.77;3.78;;;;;;;5.53;56.42;99379.72;12637606;23;20024;-77
2022/02/26 19:25:31;;;;;;;11.20;3.65;;;;;;;5.56;56.28;99372.38;12677185;23;20018;-77
2022/02/26 19:30:54;;;;;;;9.02;3.50;;;;;;;5.48;56.61;99366.66;12678758;23;20017;-78
2022/02/26 19:36:15;;;;;;;10.70;3.57;;;;;;;5.46;57.20;99375.50;12618194;23;20018;-77
2022/02/26 19:42:05;;;;;;;8.15;3.00;;;;;;;5.45;56.98;99382.31;12648327;23;20022;-77
2022/02/26 19:47:28;;;;;;;8.68;3.17;;;;;;;5.46;56.89;99385.84;12657095;23;20014;-77
2022/02/26 19:52:49;;;;;;;9.93;3.95;;;;;;;5.45;57.16;99389.88;12617022;23;20088;-77
2022/02/26 19:58:10;;;;;;;8.73;4.40;;;;;;;5.38;57.04;99385.66;12617450;23;20441;-77
2022/02/26 20:03:33;;;;;;;9.88;3.85;;;;;;;5.36;57.47;99393.00;12638188;23;20389;-77
2022/02/26 20:08:55;;;;;;;9.52;3.83;;;;;;;5.34;57.34;99387.22;12637856;23;20013;-76
2022/02/26 20:14:16;;;;;;;11.77;4.00;;;;;;;5.16;57.79;99396.97;12637024;23;20037;-80
2022/02/26 20:19:38;;;;;;;10.32;3.60;;;;;;;5.08;57.84;99390.50;12619605;23;20018;-77
2022/02/26 20:25:00;;;;;;;9.43;3.88;;;;;;;5.04;58.40;99401.13;12677512;23;20022;-77
2022/02/26 20:30:22;;;;;;;9.90;4.13;;;;;;;4.96;58.88;99394.66;12638641;23;20014;-77
2022/02/26 20:35:52;;;;;;;8.77;3.70;;;;;;;4.92;58.67;99405.25;12638804;23;20025;-77
2022/02/26 20:41:16;;;;;;;8.77;4.13;;;;;;;4.75;58.66;99405.41;12620164;23;20018;-77
2022/02/26 20:46:38;;;;;;;8.32;3.95;;;;;;;4.53;59.04;99411.81;12658459;23;20018;-77
2022/02/26 20:51:59;;;;;;;10.93;3.63;;;;;;;4.31;58.71;99404.44;12638411;23;20025;-77
2022/02/26 20:57:20;;;;;;;10.77;3.28;;;;;;;4.15;58.16;99410.81;12638169;23;20046;-77
2022/02/26 21:02:40;;;;;;;8.75;3.55;;;;;;;4.05;58.65;99409.59;12636986;23;20025;-77
2022/02/26 21:08:03;;;;;;;7.95;3.42;;;;;;;3.93;59.14;99408.91;12640503;23;20018;-77
2022/02/26 21:13:27;;;;;;;9.63;3.60;;;;;;;3.90;59.82;99398.88;12655814;23;20021;-76
2022/02/26 21:18:49;;;;;;;10.93;3.70;;;;;;;3.87;59.88;99408.22;12615772;23;20021;-77
2022/02/26 21:24:09;;;;;;;12.00;4.25;;;;;;;3.81;60.21;99413.00;12634887;23;20084;-76
2022/02/26 21:29:30;;;;;;;9.77;4.05;;;;;;;3.82;60.24;99414.50;12635358;23;20425;-76
2022/02/26 21:34:53;;;;;;;8.68;3.67;;;;;;;3.84;60.05;99411.97;12654581;23;20033;-76
2022/02/26 21:40:15;;;;;;;11.75;6.35;;;;;;;3.93;60.68;99417.19;12655349;23;20017;-77
2022/02/26 21:45:36;;;;;;;8.52;4.53;;;;;;;4.00;60.68;99409.13;12638627;23;20014;-76
2022/02/26 21:50:57;;;;;;;13.07;4.43;;;;;;;4.05;61.30;99410.34;12638795;23;20434;-76
2022/02/26 21:56:20;;;;;;;12.52;4.55;;;;;;;4.05;60.58;99404.81;12658602;23;20068;-76
2022/02/26 22:01:41;;;;;;;9.83;4.27;;;;;;;4.02;60.83;99416.91;12638786;23;20041;-77
2022/02/26 22:07:03;;;;;;;12.13;4.75;;;;;;;4.01;61.15;99423.69;12658552;23;20018;-76
2022/02/26 22:12:27;;;;;;;11.30;4.15;;;;;;;3.95;61.47;99425.72;12642344;23;20362;-76
2022/02/26 22:17:48;;;;;;;13.07;4.97;;;;;;;3.95;61.44;99431.25;12664493;23;20385;-76
2022/02/26 22:23:11;;;;;;;8.55;4.05;;;;;;;3.86;61.14;99437.06;12658600;23;20042;-76
2022/02/26 22:28:34;;;;;;;11.05;4.97;;;;;;;3.87;61.83;99436.59;12658977;23;20444;-76
2022/02/26 22:33:56;;;;;;;15.45;5.00;;;;;;;3.87;61.86;99438.59;12680554;23;20014;-76
2022/02/26 22:39:17;;;;;;;11.60;4.97;;;;;;;3.91;61.64;99444.59;12678602;23;20018;-76
2022/02/26 22:44:38;;;;;;;9.70;4.50;;;;;;;3.91;61.77;99439.06;12618694;23;20033;-76
2022/02/26 22:49:59;;;;;;;12.20;4.85;;;;;;;3.88;62.30;99448.38;12638923;23;20017;-77
2022/02/26 22:55:20;;;;;;;10.95;4.82;;;;;;;3.82;62.27;99442.13;12659479;23;20044;-76
2022/02/26 23:06:45;;;;;;;13.00;5.30;;;;;;;3.67;62.26;99440.41;12613745;23;20045;-76
2022/02/26 23:12:07;;;;;;;10.70;4.47;;;;;;;3.65;62.79;99450.44;12578650;23;20015;-76
2022/02/26 23:17:30;;;;;;;11.97;5.30;;;;;;;3.57;62.88;99449.47;12598944;23;20337;-76
2022/02/26 23:22:50;;;;;;;7.72;3.55;;;;;;;3.52;62.65;99455.75;12639271;23;20025;-76
2022/02/26 23:28:11;;;;;;;13.07;4.93;;;;;;;3.55;62.62;99451.97;12597581;23;20069;-76
2022/02/26 23:33:33;;;;;;;13.75;4.95;;;;;;;3.61;63.12;99456.25;12597412;23;20094;-76
2022/02/26 23:38:54;;;;;;;15.45;5.30;;;;;;;3.63;63.20;99458.50;12616859;23;20030;-76
2022/02/26 23:44:15;;;;;;;12.15;5.05;;;;;;;3.65;63.50;99462.25;12597230;23;20018;-76
2022/02/26 23:49:37;;;;;;;11.57;4.50;;;;;;;3.64;62.84;99460.75;12576392;23;20508;-76
2022/02/26 23:54:58;;;;;;;16.63;7.60;;;;;;;3.69;63.03;99462.00;12617161;23;20015;-76
